createdAt,value
2019-05-09T00:01:03.730Z,14.20
2019-05-09T00:03:44.106Z,14.38
2019-05-09T00:06:23.851Z,14.63
2019-05-09T00:09:03.572Z,15.03
2019-05-09T00:11:43.839Z,14.20
2019-05-09T00:14:23.853Z,14.10
2019-05-09T00:17:03.512Z,13.13
2019-05-09T00:19:43.717Z,12.98
2019-05-09T00:22:25.134Z,12.82
2019-05-09T00:25:03.365Z,11.00
2019-05-09T00:27:43.484Z,11.22
2019-05-09T00:30:23.223Z,11.97
2019-05-09T00:33:03.801Z,12.40
2019-05-09T00:35:44.190Z,11.60
2019-05-09T00:38:25.035Z,11.43
2019-05-09T00:41:03.871Z,11.00
2019-05-09T00:43:43.629Z,10.78
2019-05-09T00:46:27.571Z,12.55
2019-05-09T00:49:19.903Z,11.43
2019-05-09T00:51:58.730Z,11.70
2019-05-09T00:54:36.521Z,11.00
2019-05-09T00:57:15.705Z,10.68
2019-05-09T00:59:54.576Z,11.70
2019-05-09T01:02:34.030Z,10.38
2019-05-09T01:05:13.373Z,10.80
2019-05-09T01:07:53.634Z,10.60
2019-05-09T01:10:34.794Z,11.35
2019-05-09T01:13:14.179Z,10.90
2019-05-09T01:15:53.350Z,10.88
2019-05-09T01:18:33.142Z,10.95
2019-05-09T01:21:14.558Z,11.18
2019-05-09T01:23:53.914Z,10.95
2019-05-09T01:26:33.319Z,10.13
2019-05-09T01:29:13.830Z,11.93
2019-05-09T01:31:51.552Z,11.53
2019-05-09T01:34:33.526Z,12.50
2019-05-09T01:37:14.116Z,11.50
2019-05-09T01:39:53.442Z,10.98
2019-05-09T01:42:33.647Z,10.78
2019-05-09T01:45:11.383Z,10.88
2019-05-09T01:47:49.564Z,11.30
2019-05-09T01:50:27.991Z,11.65
2019-05-09T01:53:07.224Z,12.30
2019-05-09T01:56:03.626Z,11.35
2019-05-09T01:58:43.072Z,12.75
2019-05-09T02:01:20.803Z,11.85
2019-05-09T02:04:00.367Z,13.28
2019-05-09T02:06:38.044Z,13.48
2019-05-09T02:09:16.029Z,12.75
2019-05-09T02:11:54.636Z,11.75
2019-05-09T02:14:51.518Z,12.85
2019-05-09T02:17:54.133Z,12.55
2019-05-09T02:20:20.902Z,13.68
2019-05-09T02:23:00.021Z,13.32
2019-05-09T02:25:38.946Z,12.50
2019-05-09T02:28:17.669Z,12.90
2019-05-09T02:30:56.202Z,13.13
2019-05-09T02:33:34.889Z,13.25
2019-05-09T02:36:14.153Z,13.08
2019-05-09T02:38:52.693Z,12.95
2019-05-09T02:41:31.516Z,13.48
2019-05-09T02:44:11.824Z,13.00
2019-05-09T02:47:00.228Z,14.30
2019-05-09T02:49:39.190Z,13.13
2019-05-09T02:52:19.826Z,12.70
2019-05-09T02:55:00.833Z,12.98
2019-05-09T02:57:39.516Z,12.68
2019-05-09T03:00:39.626Z,13.15
2019-05-09T03:03:29.086Z,12.95
2019-05-09T03:06:09.117Z,12.93
2019-05-09T03:08:49.147Z,13.98
2019-05-09T03:11:28.923Z,13.70
2019-05-09T03:14:09.141Z,14.93
2019-05-09T03:16:49.176Z,13.68
2019-05-09T03:19:29.417Z,13.75
2019-05-09T03:22:14.131Z,12.82
2019-05-09T03:24:58.882Z,14.20
2019-05-09T03:27:39.119Z,13.65
2019-05-09T03:30:21.334Z,14.85
2019-05-09T03:32:59.988Z,14.78
2019-05-09T03:35:39.738Z,13.55
2019-05-09T03:38:18.220Z,13.68
2019-05-09T03:40:58.009Z,14.20
2019-05-09T03:43:37.702Z,14.03
2019-05-09T03:46:23.118Z,14.90
2019-05-09T03:49:02.486Z,14.80
2019-05-09T03:51:42.258Z,15.13
2019-05-09T03:54:20.182Z,15.18
2019-05-09T03:57:03.565Z,14.28
2019-05-09T03:59:42.422Z,14.23
2019-05-09T04:02:21.069Z,15.00
2019-05-09T04:05:00.072Z,14.75
2019-05-09T04:07:40.183Z,14.43
2019-05-09T04:10:18.174Z,15.23
2019-05-09T04:12:59.519Z,15.13
2019-05-09T04:15:37.960Z,14.40
2019-05-09T04:18:17.682Z,14.93
2019-05-09T04:20:57.379Z,13.83
2019-05-09T04:23:37.884Z,14.80
2019-05-09T04:26:22.387Z,14.70
2019-05-09T04:29:01.919Z,15.13
2019-05-09T04:31:41.096Z,14.45
2019-05-09T04:34:19.524Z,13.40
2019-05-09T04:36:59.099Z,13.15
2019-05-09T04:39:38.681Z,13.00
2019-05-09T04:42:18.499Z,13.08
2019-05-09T04:45:05.787Z,14.33
2019-05-09T04:47:47.073Z,13.75
2019-05-09T04:50:25.057Z,14.28
2019-05-09T04:53:02.591Z,14.60
2019-05-09T04:55:41.695Z,14.38
2019-05-09T04:58:20.683Z,14.38
2019-05-09T05:01:19.565Z,14.50
2019-05-09T05:03:58.094Z,16.45
2019-05-09T05:06:40.302Z,14.60
2019-05-09T05:09:20.576Z,14.87
2019-05-09T05:11:58.038Z,14.80
2019-05-09T05:14:38.255Z,14.75
2019-05-09T05:17:17.768Z,14.90
2019-05-09T05:19:57.878Z,14.43
2019-05-09T05:22:47.670Z,14.07
2019-05-09T05:25:27.442Z,14.58
2019-05-09T05:28:05.225Z,14.60
2019-05-09T05:30:43.838Z,12.82
2019-05-09T05:33:53.064Z,14.43
2019-05-09T05:36:28.488Z,14.25
2019-05-09T05:39:07.506Z,13.62
2019-05-09T05:41:48.454Z,13.85
2019-05-09T05:44:28.284Z,15.00
2019-05-09T05:47:39.679Z,13.28
2019-05-09T05:50:17.821Z,14.30
2019-05-09T05:52:57.809Z,13.68
2019-05-09T05:55:37.813Z,14.53
2019-05-09T05:58:17.876Z,13.90
2019-05-09T06:00:55.461Z,13.00
2019-05-09T06:03:37.494Z,14.30
2019-05-09T06:06:17.454Z,14.95
2019-05-09T06:08:57.749Z,15.18
2019-05-09T06:11:34.967Z,15.45
2019-05-09T06:14:13.256Z,15.08
2019-05-09T06:16:52.359Z,14.13
2019-05-09T06:19:30.819Z,13.95
2019-05-09T06:22:09.837Z,14.18
2019-05-09T06:24:47.837Z,15.28
2019-05-09T06:27:27.591Z,15.35
2019-05-09T06:30:04.669Z,14.40
2019-05-09T06:32:42.806Z,16.50
2019-05-09T06:35:28.212Z,15.00
2019-05-09T06:38:07.940Z,15.08
2019-05-09T06:40:47.569Z,15.70
2019-05-09T06:43:30.498Z,14.68
2019-05-09T06:46:14.946Z,14.00
2019-05-09T06:48:53.957Z,14.28
2019-05-09T06:51:32.705Z,14.58
2019-05-09T06:54:10.900Z,14.98
2019-05-09T06:56:50.188Z,14.63
2019-05-09T06:59:28.897Z,16.75
2019-05-09T07:02:17.671Z,15.45
2019-05-09T07:05:02.288Z,15.72
2019-05-09T07:07:58.495Z,15.83
2019-05-09T07:10:37.696Z,15.65
2019-05-09T07:13:17.722Z,15.88
2019-05-09T07:15:58.368Z,15.28
2019-05-09T07:18:38.139Z,15.48
2019-05-09T07:21:15.456Z,16.25
2019-05-09T07:23:54.710Z,14.75
2019-05-09T07:26:37.220Z,15.93
2019-05-09T07:29:17.636Z,15.08
2019-05-09T07:32:03.700Z,15.10
2019-05-09T07:34:47.470Z,15.75
2019-05-09T07:37:27.512Z,14.53
2019-05-09T07:40:04.423Z,14.85
2019-05-09T07:42:42.885Z,16.12
2019-05-09T07:45:21.556Z,16.90
2019-05-09T07:47:59.780Z,15.25
2019-05-09T07:50:39.048Z,15.58
2019-05-09T07:53:17.797Z,14.80
2019-05-09T07:55:58.174Z,16.27
2019-05-09T07:58:37.763Z,15.72
2019-05-09T08:01:19.014Z,16.30
2019-05-09T08:03:58.416Z,15.63
2019-05-09T08:06:37.975Z,15.80
2019-05-09T08:09:18.560Z,15.18
2019-05-09T08:11:58.523Z,15.08
2019-05-09T08:14:37.750Z,14.85
2019-05-09T08:17:18.087Z,16.35
2019-05-09T08:19:58.338Z,15.80
2019-05-09T08:22:40.848Z,15.13
2019-05-09T08:25:18.185Z,14.93
2019-05-09T08:27:58.542Z,15.58
2019-05-09T08:30:40.089Z,16.70
2019-05-09T08:33:14.716Z,15.48
2019-05-09T08:35:53.340Z,15.88
2019-05-09T08:38:31.394Z,15.58
2019-05-09T08:41:18.691Z,15.05
2019-05-09T08:43:58.699Z,15.45
2019-05-09T08:46:38.388Z,16.12
2019-05-09T08:49:18.252Z,15.58
2019-05-09T08:52:13.073Z,15.18
2019-05-09T08:54:48.980Z,16.65
2019-05-09T08:57:28.948Z,15.75
2019-05-09T09:00:08.118Z,15.85
2019-05-09T09:02:48.205Z,16.32
2019-05-09T09:05:28.697Z,16.90
2019-05-09T09:08:08.355Z,19.07
2019-05-09T09:10:48.814Z,21.25
2019-05-09T09:13:28.355Z,17.77
2019-05-09T09:16:15.779Z,16.80
2019-05-09T09:18:47.850Z,14.43
2019-05-09T09:21:24.951Z,13.50
2019-05-09T09:24:04.217Z,12.28
2019-05-09T09:26:43.179Z,16.15
2019-05-09T09:29:21.883Z,17.25
2019-05-09T09:32:00.487Z,19.00
2019-05-09T09:34:39.007Z,18.20
2019-05-09T09:37:18.501Z,12.28
2019-05-09T09:39:58.225Z,10.63
2019-05-09T09:42:39.407Z,10.32
2019-05-09T09:45:18.519Z,9.20
2019-05-09T09:47:59.086Z,9.40
2019-05-09T09:50:38.307Z,7.92
2019-05-09T09:53:18.463Z,8.73
2019-05-09T09:55:57.909Z,5.33
2019-05-09T09:58:37.925Z,5.10
2019-05-09T10:01:32.426Z,3.60
2019-05-09T10:04:20.670Z,2.70
2019-05-09T10:06:55.244Z,2.10
2019-05-09T10:09:34.173Z,3.22
2019-05-09T10:12:13.204Z,2.92
2019-05-09T10:14:59.280Z,2.17
2019-05-09T10:17:58.113Z,2.05
2019-05-09T10:21:03.409Z,1.92
2019-05-09T10:23:41.697Z,1.92
2019-05-09T10:26:20.928Z,1.52
2019-05-09T10:29:00.045Z,1.70
2019-05-09T10:31:39.223Z,1.22
2019-05-09T10:34:17.714Z,1.87
2019-05-09T10:36:58.139Z,3.33
2019-05-09T10:39:38.023Z,3.80
2019-05-09T10:42:28.695Z,2.87
2019-05-09T10:45:23.787Z,4.25
2019-05-09T10:48:02.814Z,5.80
2019-05-09T10:50:44.954Z,5.37
2019-05-09T10:53:21.031Z,4.95
2019-05-09T10:55:59.722Z,4.30
2019-05-09T10:58:37.602Z,4.53
2019-05-09T11:01:18.225Z,4.30
2019-05-09T11:03:58.923Z,4.53
2019-05-09T11:06:38.195Z,4.25
2019-05-09T11:09:18.282Z,5.12
2019-05-09T11:12:00.394Z,4.53
2019-05-09T11:14:37.757Z,3.80
2019-05-09T11:17:19.295Z,4.30
2019-05-09T11:19:58.760Z,4.10
2019-05-09T11:22:38.432Z,3.80
2019-05-09T11:25:15.605Z,4.47
2019-05-09T11:28:06.962Z,3.60
2019-05-09T11:30:34.050Z,3.72
2019-05-09T11:33:11.941Z,4.45
2019-05-09T11:35:50.526Z,4.75
2019-05-09T11:38:34.285Z,5.50
2019-05-09T11:41:08.309Z,5.45
2019-05-09T11:43:48.523Z,4.58
2019-05-09T11:46:28.156Z,5.05
2019-05-09T11:49:07.986Z,5.03
2019-05-09T11:51:48.065Z,5.90
2019-05-09T11:54:27.750Z,4.62
2019-05-09T11:57:07.510Z,5.25
2019-05-09T11:59:47.902Z,5.03
2019-05-09T12:02:24.762Z,5.75
2019-05-09T12:05:03.796Z,5.28
2019-05-09T12:07:42.899Z,5.40
2019-05-09T12:10:21.688Z,6.10
2019-05-09T12:13:00.608Z,5.67
2019-05-09T12:15:40.019Z,6.08
2019-05-09T12:18:18.044Z,7.03
2019-05-09T12:20:57.650Z,6.62
2019-05-09T12:23:37.798Z,7.58
2019-05-09T12:26:17.761Z,7.50
2019-05-09T12:28:57.404Z,7.22
2019-05-09T12:31:35.421Z,6.85
2019-05-09T12:34:14.019Z,7.03
2019-05-09T12:36:52.871Z,7.42
2019-05-09T12:39:31.480Z,6.33
2019-05-09T12:42:08.835Z,6.92
2019-05-09T12:44:49.503Z,6.35
2019-05-09T12:47:29.143Z,6.12
2019-05-09T12:50:08.432Z,5.90
2019-05-09T12:52:48.610Z,5.80
2019-05-09T12:55:27.600Z,5.10
2019-05-09T12:58:09.738Z,4.90
2019-05-09T13:00:50.181Z,4.05
2019-05-09T13:03:27.629Z,4.37
2019-05-09T13:06:07.974Z,4.15
2019-05-09T13:08:48.002Z,4.40
2019-05-09T13:11:27.945Z,3.90
2019-05-09T13:14:09.910Z,4.40
2019-05-09T13:17:05.264Z,3.85
2019-05-09T13:19:47.980Z,3.52
2019-05-09T13:22:28.145Z,4.37
2019-05-09T13:25:04.913Z,3.80
2019-05-09T13:27:43.524Z,4.70
2019-05-09T13:30:22.072Z,4.22
2019-05-09T13:33:00.984Z,3.80
2019-05-09T13:35:40.786Z,3.90
2019-05-09T13:38:19.192Z,3.85
2019-05-09T13:40:58.416Z,4.10
2019-05-09T13:43:45.948Z,3.80
2019-05-09T13:46:17.880Z,3.83
2019-05-09T13:49:10.797Z,4.00
2019-05-09T13:51:34.395Z,3.02
2019-05-09T13:54:13.067Z,3.30
2019-05-09T13:56:57.567Z,3.47
2019-05-09T13:59:31.757Z,3.47
2019-05-09T14:02:11.075Z,3.50
2019-05-09T14:04:50.203Z,3.45
2019-05-09T14:07:28.505Z,3.70
2019-05-09T14:10:09.057Z,3.62
2019-05-09T14:13:02.027Z,3.52
2019-05-09T14:15:27.504Z,3.67
2019-05-09T14:18:08.145Z,4.05
2019-05-09T14:20:46.712Z,3.92
2019-05-09T14:23:24.708Z,3.90
2019-05-09T14:26:03.867Z,4.40
2019-05-09T14:28:42.476Z,4.37
2019-05-09T14:31:20.824Z,4.55
2019-05-09T14:33:59.993Z,4.37
2019-05-09T14:36:44.466Z,4.50
2019-05-09T14:39:19.074Z,4.67
2019-05-09T14:41:57.957Z,4.95
2019-05-09T14:44:37.708Z,4.80
2019-05-09T14:47:17.632Z,5.08
2019-05-09T14:49:59.252Z,5.25
2019-05-09T14:52:38.411Z,4.85
2019-05-09T14:55:17.936Z,4.85
2019-05-09T14:57:58.153Z,5.12
2019-05-09T15:00:38.503Z,5.30
2019-05-09T15:03:18.800Z,5.58
2019-05-09T15:05:57.424Z,6.03
2019-05-09T15:08:38.022Z,5.33
2019-05-09T15:11:18.200Z,5.95
2019-05-09T15:13:58.243Z,5.92
2019-05-09T15:16:35.999Z,5.92
2019-05-09T15:19:14.028Z,6.22
2019-05-09T15:21:51.417Z,5.90
2019-05-09T15:24:30.066Z,6.60
2019-05-09T15:27:08.528Z,7.45
2019-05-09T15:29:48.642Z,6.47
2019-05-09T15:32:27.735Z,6.70
2019-05-09T15:35:08.688Z,7.12
2019-05-09T15:37:47.855Z,6.83
2019-05-09T15:40:28.065Z,6.80
2019-05-09T15:43:08.132Z,7.17
2019-05-09T15:45:51.410Z,7.20
2019-05-09T15:48:30.722Z,7.35
2019-05-09T15:51:09.351Z,7.55
2019-05-09T15:53:48.665Z,8.08
2019-05-09T15:56:28.845Z,7.75
2019-05-09T15:59:06.713Z,7.60
2019-05-09T16:01:45.558Z,7.95
2019-05-09T16:04:23.371Z,7.95
2019-05-09T16:07:02.296Z,8.05
2019-05-09T16:09:41.243Z,8.80
2019-05-09T16:12:20.234Z,8.25
2019-05-09T16:14:58.273Z,9.10
2019-05-09T16:17:39.342Z,8.78
2019-05-09T16:20:22.974Z,9.83
2019-05-09T16:22:57.216Z,9.03
2019-05-09T16:25:35.520Z,9.38
2019-05-09T16:28:13.541Z,9.75
2019-05-09T16:30:51.789Z,9.43
2019-05-09T16:33:30.810Z,10.72
2019-05-09T16:36:09.449Z,9.98
2019-05-09T16:38:49.106Z,9.75
2019-05-09T16:41:28.008Z,10.15
2019-05-09T16:44:07.885Z,9.38
2019-05-09T16:46:48.169Z,8.93
2019-05-09T16:49:29.308Z,9.28
2019-05-09T16:52:07.353Z,9.55
2019-05-09T16:54:49.867Z,9.73
2019-05-09T16:57:27.568Z,9.18
2019-05-09T17:00:07.857Z,9.28
2019-05-09T17:02:48.121Z,8.18
2019-05-09T17:05:27.913Z,8.78
2019-05-09T17:08:08.146Z,9.15
2019-05-09T17:10:48.403Z,9.18
2019-05-09T17:13:28.932Z,9.13
2019-05-09T17:16:07.563Z,8.65
2019-05-09T17:18:48.498Z,8.68
2019-05-09T17:21:37.750Z,9.45
2019-05-09T17:24:18.878Z,9.78
2019-05-09T17:26:58.017Z,9.90
2019-05-09T17:29:38.120Z,10.25
2019-05-09T17:32:18.126Z,9.60
2019-05-09T17:34:58.150Z,9.75
2019-05-09T17:37:38.041Z,10.32
2019-05-09T17:40:19.115Z,9.38
2019-05-09T17:42:58.979Z,9.50
2019-05-09T17:45:39.548Z,9.78
2019-05-09T17:48:18.267Z,10.23
2019-05-09T17:50:57.860Z,10.43
2019-05-09T17:53:37.285Z,10.40
2019-05-09T17:56:16.590Z,11.00
2019-05-09T17:58:57.700Z,10.55
2019-05-09T18:01:35.841Z,11.12
2019-05-09T18:04:15.102Z,11.65
2019-05-09T18:06:53.070Z,11.85
2019-05-09T18:09:31.875Z,12.68
2019-05-09T18:12:10.454Z,11.70
2019-05-09T18:14:49.052Z,12.30
2019-05-09T18:17:27.978Z,12.30
2019-05-09T18:20:08.078Z,12.47
2019-05-09T18:22:47.940Z,13.32
2019-05-09T18:25:26.837Z,12.53
2019-05-09T18:28:05.496Z,13.28
2019-05-09T18:30:44.322Z,13.05
2019-05-09T18:33:47.606Z,13.60
2019-05-09T18:36:28.076Z,13.93
2019-05-09T18:39:05.044Z,12.78
2019-05-09T18:41:45.551Z,13.98
2019-05-09T18:44:24.181Z,13.35
2019-05-09T18:47:07.633Z,13.88
2019-05-09T18:49:45.068Z,12.05
2019-05-09T18:52:23.257Z,13.08
2019-05-09T18:55:00.552Z,13.88
2019-05-09T18:57:39.368Z,14.65
2019-05-09T19:00:19.266Z,13.28
2019-05-09T19:02:58.373Z,14.25
2019-05-09T19:05:36.923Z,14.83
2019-05-09T19:08:15.118Z,13.93
2019-05-09T19:10:53.788Z,13.88
2019-05-09T19:13:32.810Z,13.32
2019-05-09T19:16:21.110Z,13.20
2019-05-09T19:19:10.748Z,13.80
2019-05-09T19:21:56.974Z,13.80
2019-05-09T19:24:36.443Z,13.25
2019-05-09T19:27:15.559Z,14.33
2019-05-09T19:29:54.502Z,14.30
2019-05-09T19:32:32.439Z,14.23
2019-05-09T19:35:10.340Z,12.93
2019-05-09T19:37:48.590Z,13.98
2019-05-09T19:40:27.692Z,13.48
2019-05-09T19:43:06.155Z,14.33
2019-05-09T19:45:44.792Z,15.18
2019-05-09T19:48:22.840Z,15.50
2019-05-09T19:51:00.792Z,15.40
2019-05-09T19:53:38.678Z,15.03
2019-05-09T19:56:17.953Z,15.23
2019-05-09T19:58:56.432Z,15.32
2019-05-09T20:01:34.727Z,15.60
2019-05-09T20:04:13.564Z,15.78
2019-05-09T20:06:51.356Z,16.35
2019-05-09T20:09:35.506Z,16.30
2019-05-09T20:12:31.233Z,16.30
2019-05-09T20:15:11.355Z,17.20
2019-05-09T20:17:49.310Z,16.20
2019-05-09T20:20:27.655Z,16.15
2019-05-09T20:23:06.513Z,16.35
2019-05-09T20:25:45.730Z,16.35
2019-05-09T20:28:24.305Z,16.37
2019-05-09T20:31:03.211Z,16.45
2019-05-09T20:33:40.947Z,15.78
2019-05-09T20:36:19.425Z,18.05
2019-05-09T20:38:58.123Z,16.35
2019-05-09T20:41:37.472Z,18.10
2019-05-09T20:44:16.657Z,17.42
2019-05-09T20:46:55.033Z,18.17
2019-05-09T20:49:33.528Z,17.80
2019-05-09T20:52:12.600Z,19.07
2019-05-09T20:54:51.064Z,17.82
2019-05-09T20:57:29.246Z,17.62
2019-05-09T21:00:08.107Z,18.20
2019-05-09T21:02:46.691Z,17.80
2019-05-09T21:05:25.932Z,17.02
2019-05-09T21:08:04.939Z,17.92
2019-05-09T21:10:44.266Z,18.30
2019-05-09T21:13:22.885Z,18.52
2019-05-09T21:16:03.202Z,18.20
2019-05-09T21:18:42.538Z,19.50
2019-05-09T21:21:22.595Z,17.98
2019-05-09T21:24:01.958Z,18.27
2019-05-09T21:26:40.104Z,18.87
2019-05-09T21:29:19.271Z,19.60
2019-05-09T21:31:57.912Z,18.20
2019-05-09T21:34:37.046Z,18.75
2019-05-09T21:37:16.253Z,18.87
2019-05-09T21:39:53.589Z,19.32
2019-05-09T21:42:32.344Z,19.37
2019-05-09T21:45:11.246Z,20.65
2019-05-09T21:47:50.174Z,19.48
2019-05-09T21:50:28.964Z,21.07
2019-05-09T21:53:07.966Z,20.82
2019-05-09T21:55:45.438Z,21.93
2019-05-09T21:58:23.100Z,21.75
2019-05-09T22:01:03.670Z,20.43
2019-05-09T22:03:42.682Z,20.68
2019-05-09T22:06:21.930Z,20.43
2019-05-09T22:09:01.064Z,21.85
2019-05-09T22:11:47.406Z,22.13
2019-05-09T22:14:25.826Z,21.35
2019-05-09T22:17:08.233Z,23.20
2019-05-09T22:19:46.328Z,21.82
2019-05-09T22:22:24.991Z,23.38
2019-05-09T22:25:04.163Z,22.93
2019-05-09T22:27:43.473Z,25.70
2019-05-09T22:30:21.819Z,25.45
2019-05-09T22:32:59.834Z,25.45
2019-05-09T22:35:38.614Z,27.37
2019-05-09T22:38:16.471Z,25.12
2019-05-09T22:40:54.806Z,25.52
2019-05-09T22:43:32.780Z,25.65
2019-05-09T22:46:11.830Z,25.57
2019-05-09T22:48:52.107Z,25.97
2019-05-09T22:51:30.402Z,23.92
2019-05-09T22:54:12.759Z,22.93
2019-05-09T22:56:48.354Z,24.02
2019-05-09T22:59:27.158Z,23.38
2019-05-09T23:02:07.063Z,24.00
2019-05-09T23:04:45.666Z,25.20
2019-05-09T23:07:24.695Z,23.57
2019-05-09T23:10:03.743Z,23.02
2019-05-09T23:12:43.091Z,22.10
2019-05-09T23:15:22.312Z,22.55
2019-05-09T23:18:01.270Z,22.42
2019-05-09T23:20:59.027Z,19.87
2019-05-09T23:23:53.737Z,21.52
2019-05-09T23:26:33.342Z,21.15
2019-05-09T23:29:12.851Z,19.48
2019-05-09T23:31:59.769Z,20.68
2019-05-09T23:34:38.581Z,20.35
2019-05-09T23:37:17.239Z,19.67
2019-05-09T23:39:55.861Z,21.12
2019-05-09T23:42:34.678Z,18.73
2019-05-09T23:45:12.853Z,19.12
2019-05-09T23:47:51.452Z,19.40
2019-05-09T23:50:34.435Z,19.30
2019-05-09T23:53:14.359Z,17.20
2019-05-09T23:56:10.733Z,16.32
2019-05-09T23:59:05.040Z,20.45
